Chalk, Texas
Current Conditions -  °F | °C
As of 9:53 AM on Saturday 20 Dec 2014 (Local Time) from KCDS Reporting Station
Overcast Overcast  
Wind Chill: 40°   Ceiling: 1900
Heat Index: 45°   Visibility: 10mi
Dew Point: 37°   Wind: 9mph
Humidity: 74%   Direction: 200°SSW
Pressure: 30.19"   Gusts: NA
Location:  33.87°N, 100.22°W
Report Text: KCDS 201553Z AUTO 20008KT 10SM OVC019 07/03 A3019 RMK AO2 SLP224 T00720028
Loading
Personal Weather Stations






























Interactive Weather Map New forecast layout! Learn more

10-Day Weather Forecast

Advertisements
Track Severe Weather on mobile